VIR186 TAPA-TBPB
Flight info
| Callsign | VIR186 |
|---|---|
| Flight time | 0h 51m |
| Altitude | 24000 |
| Route | ANU A632 BIRNO/N0373F230 A632 BGI |
| Aircraft | A333/H-SDE3GHIJ2J3J5M1RVWXY/LB2D1 |
Departure
| Time | 2026-04-17 07:43 |
|---|---|
| Airport | V. C. Bird International Airport (TAPA) |
Arrival
| Time | 2026-04-17 08:35 |
|---|---|
| Airport | Grantley Adams International Airport (TBPB) |
| Time | Latitude | Longitude | Altitude | Speed | Heading |
|---|---|---|---|---|---|
| 2026-04-17 07:16 | 17.14143 | -61.78959 | 53 ft | 0 kts | 324° |
| 2026-04-17 07:30 | 17.14137 | -61.78954 | 53 ft | 4 kts | 328° |
| 2026-04-17 07:30 | 17.14112 | -61.78944 | 48 ft | 4 kts | 354° |
| 2026-04-17 07:30 | 17.14087 | -61.78941 | 53 ft | 3 kts | 330° |
| 2026-04-17 07:31 | 17.14085 | -61.78939 | 53 ft | 1 kts | 327° |
| 2026-04-17 07:34 | 17.14089 | -61.78943 | 53 ft | 1 kts | 316° |
| 2026-04-17 07:34 | 17.14090 | -61.78951 | 49 ft | 1 kts | 282° |
| 2026-04-17 07:35 | 17.14086 | -61.78957 | 53 ft | 1 kts | 240° |
| 2026-04-17 07:35 | 17.14058 | -61.78981 | 54 ft | 7 kts | 216° |
| 2026-04-17 07:35 | 17.14016 | -61.79021 | 50 ft | 9 kts | 231° |
| 2026-04-17 07:35 | 17.13983 | -61.79077 | 50 ft | 9 kts | 239° |
| 2026-04-17 07:36 | 17.13938 | -61.79126 | 48 ft | 10 kts | 210° |
| 2026-04-17 07:36 | 17.13878 | -61.79128 | 55 ft | 4 kts | 153° |
| 2026-04-17 07:36 | 17.13871 | -61.79125 | 55 ft | 2 kts | 153° |
| 2026-04-17 07:36 | 17.13866 | -61.79122 | 55 ft | 0 kts | 154° |
| 2026-04-17 07:37 | 17.13847 | -61.79110 | 47 ft | 7 kts | 149° |
| 2026-04-17 07:38 | 17.13792 | -61.79100 | 55 ft | 8 kts | 199° |
| 2026-04-17 07:38 | 17.13750 | -61.79140 | 50 ft | 9 kts | 239° |
| 2026-04-17 07:38 | 17.13716 | -61.79197 | 57 ft | 10 kts | 238° |
| 2026-04-17 07:38 | 17.13675 | -61.79266 | 51 ft | 14 kts | 238° |
| 2026-04-17 07:39 | 17.13608 | -61.79380 | 52 ft | 22 kts | 238° |
| 2026-04-17 07:39 | 17.13526 | -61.79516 | 58 ft | 23 kts | 237° |
| 2026-04-17 07:39 | 17.13440 | -61.79661 | 56 ft | 24 kts | 238° |
| 2026-04-17 07:39 | 17.13349 | -61.79813 | 57 ft | 25 kts | 238° |
| 2026-04-17 07:40 | 17.13253 | -61.79975 | 58 ft | 26 kts | 238° |
| 2026-04-17 07:40 | 17.13188 | -61.80083 | 58 ft | 27 kts | 238° |
| 2026-04-17 07:40 | 17.13089 | -61.80250 | 60 ft | 27 kts | 238° |
| 2026-04-17 07:40 | 17.12999 | -61.80400 | 64 ft | 11 kts | 238° |
| 2026-04-17 07:41 | 17.12943 | -61.80462 | 64 ft | 12 kts | 211° |
| 2026-04-17 07:41 | 17.12873 | -61.80518 | 71 ft | 13 kts | 234° |
| 2026-04-17 07:41 | 17.12870 | -61.80563 | 74 ft | 7 kts | 302° |
| 2026-04-17 07:41 | 17.12903 | -61.80557 | 77 ft | 6 kts | 40° |
| 2026-04-17 07:42 | 17.12908 | -61.80549 | 77 ft | 0 kts | 52° |
| 2026-04-17 07:42 | 17.12932 | -61.80513 | 67 ft | 22 kts | 56° |
| 2026-04-17 07:43 | 17.13142 | -61.80160 | 61 ft | 91 kts | 58° |
| 2026-04-17 07:43 | 17.13592 | -61.79405 | 57 ft | 151 kts | 58° |
| 2026-04-17 07:43 | 17.14226 | -61.78430 | 617 ft | 164 kts | 57° |
| 2026-04-17 07:43 | 17.14627 | -61.77327 | 1384 ft | 168 kts | 92° |
| 2026-04-17 07:44 | 17.14079 | -61.76245 | 1669 ft | 188 kts | 132° |
| 2026-04-17 07:44 | 17.12811 | -61.75568 | 1874 ft | 224 kts | 158° |
| 2026-04-17 07:44 | 17.11200 | -61.75215 | 2176 ft | 248 kts | 166° |
| 2026-04-17 07:44 | 17.09492 | -61.74846 | 2778 ft | 252 kts | 160° |
| 2026-04-17 07:45 | 17.07820 | -61.74260 | 3423 ft | 254 kts | 154° |
| 2026-04-17 07:45 | 17.06190 | -61.73520 | 4075 ft | 257 kts | 152° |
| 2026-04-17 07:45 | 17.04552 | -61.72746 | 4770 ft | 259 kts | 152° |
| 2026-04-17 07:45 | 17.02904 | -61.71949 | 5431 ft | 262 kts | 152° |
| 2026-04-17 07:46 | 17.01248 | -61.71132 | 6113 ft | 264 kts | 151° |
| 2026-04-17 07:46 | 16.99602 | -61.70310 | 6774 ft | 267 kts | 151° |
| 2026-04-17 07:46 | 16.97916 | -61.69464 | 7418 ft | 271 kts | 151° |
| 2026-04-17 07:46 | 16.96198 | -61.68599 | 7992 ft | 278 kts | 152° |
| 2026-04-17 07:47 | 16.94428 | -61.67707 | 8605 ft | 285 kts | 153° |
| 2026-04-17 07:47 | 16.92628 | -61.66803 | 9306 ft | 289 kts | 153° |
| 2026-04-17 07:47 | 16.90801 | -61.65890 | 9989 ft | 292 kts | 154° |
| 2026-04-17 07:47 | 16.88928 | -61.64953 | 10351 ft | 307 kts | 154° |
| 2026-04-17 07:48 | 16.86949 | -61.63963 | 10598 ft | 324 kts | 154° |
| 2026-04-17 07:48 | 16.84868 | -61.62925 | 10873 ft | 338 kts | 154° |
| 2026-04-17 07:48 | 16.82717 | -61.61849 | 11310 ft | 345 kts | 154° |
| 2026-04-17 07:48 | 16.80534 | -61.60757 | 11819 ft | 351 kts | 155° |
| 2026-04-17 07:49 | 16.78323 | -61.59651 | 12369 ft | 354 kts | 155° |
| 2026-04-17 07:49 | 16.76084 | -61.58532 | 12920 ft | 358 kts | 155° |
| 2026-04-17 07:49 | 16.73833 | -61.57390 | 13471 ft | 362 kts | 154° |
| 2026-04-17 07:49 | 16.71593 | -61.56165 | 14001 ft | 365 kts | 152° |
| 2026-04-17 07:50 | 16.69392 | -61.54899 | 14479 ft | 368 kts | 152° |
| 2026-04-17 07:50 | 16.67143 | -61.53572 | 14958 ft | 373 kts | 152° |
| 2026-04-17 07:50 | 16.64881 | -61.52234 | 15441 ft | 375 kts | 151° |
| 2026-04-17 07:50 | 16.62597 | -61.50889 | 15987 ft | 379 kts | 152° |
| 2026-04-17 07:51 | 16.60297 | -61.49534 | 16628 ft | 382 kts | 153° |
| 2026-04-17 07:51 | 16.57975 | -61.48181 | 17163 ft | 382 kts | 153° |
| 2026-04-17 07:51 | 16.55637 | -61.46833 | 17563 ft | 386 kts | 153° |
| 2026-04-17 07:51 | 16.53260 | -61.45457 | 18111 ft | 393 kts | 153° |
| 2026-04-17 07:52 | 16.50910 | -61.44076 | 18627 ft | 392 kts | 153° |
| 2026-04-17 07:52 | 16.48513 | -61.42675 | 19010 ft | 395 kts | 153° |
| 2026-04-17 07:52 | 16.46099 | -61.41271 | 19411 ft | 398 kts | 153° |
| 2026-04-17 07:52 | 16.43674 | -61.39864 | 19774 ft | 400 kts | 153° |
| 2026-04-17 07:53 | 16.41222 | -61.38444 | 20145 ft | 403 kts | 153° |
| 2026-04-17 07:53 | 16.38766 | -61.37021 | 20543 ft | 405 kts | 154° |
| 2026-04-17 07:53 | 16.36296 | -61.35592 | 20939 ft | 407 kts | 154° |
| 2026-04-17 07:53 | 16.33836 | -61.34167 | 21300 ft | 409 kts | 154° |
| 2026-04-17 07:54 | 16.31341 | -61.32722 | 21680 ft | 411 kts | 154° |
| 2026-04-17 07:54 | 16.28821 | -61.31266 | 22015 ft | 414 kts | 154° |
| 2026-04-17 07:54 | 16.26299 | -61.29808 | 22368 ft | 416 kts | 154° |
| 2026-04-17 07:54 | 16.23757 | -61.28336 | 22652 ft | 419 kts | 154° |
| 2026-04-17 07:55 | 16.21207 | -61.26860 | 22908 ft | 420 kts | 154° |
| 2026-04-17 07:55 | 16.18676 | -61.25394 | 23154 ft | 422 kts | 154° |
| 2026-04-17 07:55 | 16.16100 | -61.23903 | 23414 ft | 423 kts | 154° |
| 2026-04-17 07:55 | 16.13520 | -61.22409 | 23651 ft | 425 kts | 154° |
| 2026-04-17 07:56 | 16.10927 | -61.20909 | 23862 ft | 427 kts | 155° |
| 2026-04-17 07:56 | 16.08333 | -61.19408 | 23940 ft | 424 kts | 155° |
| 2026-04-17 07:56 | 16.05756 | -61.17917 | 23951 ft | 422 kts | 155° |
| 2026-04-17 07:56 | 16.03189 | -61.16433 | 23948 ft | 421 kts | 155° |
| 2026-04-17 07:57 | 16.00629 | -61.14956 | 23959 ft | 421 kts | 155° |
| 2026-04-17 07:57 | 15.98099 | -61.13495 | 23957 ft | 421 kts | 155° |
| 2026-04-17 07:57 | 15.95538 | -61.12017 | 23959 ft | 421 kts | 155° |
| 2026-04-17 07:57 | 15.92971 | -61.10537 | 23959 ft | 421 kts | 155° |
| 2026-04-17 07:58 | 15.90401 | -61.09055 | 23955 ft | 421 kts | 155° |
| 2026-04-17 07:58 | 15.87837 | -61.07577 | 23952 ft | 421 kts | 155° |
| 2026-04-17 07:58 | 15.85274 | -61.06100 | 23952 ft | 422 kts | 155° |
| 2026-04-17 07:58 | 15.82706 | -61.04621 | 23950 ft | 421 kts | 155° |
| 2026-04-17 07:59 | 15.80169 | -61.03161 | 23953 ft | 422 kts | 155° |
| 2026-04-17 07:59 | 15.77592 | -61.01676 | 23951 ft | 423 kts | 155° |
| 2026-04-17 07:59 | 15.75022 | -61.00196 | 23954 ft | 423 kts | 155° |
| 2026-04-17 07:59 | 15.72442 | -60.98712 | 23952 ft | 423 kts | 155° |
| 2026-04-17 08:00 | 15.69866 | -60.97230 | 23954 ft | 423 kts | 155° |
| 2026-04-17 08:00 | 15.67294 | -60.95750 | 23955 ft | 423 kts | 155° |
| 2026-04-17 08:00 | 15.64719 | -60.94269 | 23955 ft | 423 kts | 155° |
| 2026-04-17 08:00 | 15.62146 | -60.92789 | 23952 ft | 423 kts | 155° |
| 2026-04-17 08:01 | 15.59573 | -60.91309 | 23954 ft | 422 kts | 155° |
| 2026-04-17 08:01 | 15.57006 | -60.89833 | 23952 ft | 421 kts | 155° |
| 2026-04-17 08:01 | 15.54474 | -60.88377 | 23952 ft | 420 kts | 155° |
| 2026-04-17 08:01 | 15.51913 | -60.86906 | 23952 ft | 421 kts | 156° |
| 2026-04-17 08:02 | 15.49348 | -60.85433 | 23952 ft | 421 kts | 155° |
| 2026-04-17 08:02 | 15.46786 | -60.83964 | 23949 ft | 421 kts | 155° |
| 2026-04-17 08:02 | 15.44221 | -60.82493 | 23949 ft | 421 kts | 155° |
| 2026-04-17 08:02 | 15.41662 | -60.81026 | 23949 ft | 420 kts | 155° |
| 2026-04-17 08:03 | 15.39103 | -60.79558 | 23949 ft | 420 kts | 156° |
| 2026-04-17 08:03 | 15.36541 | -60.78089 | 23949 ft | 420 kts | 155° |
| 2026-04-17 08:03 | 15.33979 | -60.76621 | 23947 ft | 420 kts | 155° |
| 2026-04-17 08:03 | 15.31418 | -60.75153 | 23947 ft | 420 kts | 155° |
| 2026-04-17 08:04 | 15.28857 | -60.73686 | 23946 ft | 421 kts | 155° |
| 2026-04-17 08:04 | 15.26289 | -60.72216 | 23946 ft | 423 kts | 155° |
| 2026-04-17 08:04 | 15.23703 | -60.70736 | 23947 ft | 424 kts | 155° |
| 2026-04-17 08:04 | 15.21159 | -60.69281 | 23947 ft | 424 kts | 155° |
| 2026-04-17 08:05 | 15.18569 | -60.67799 | 23949 ft | 424 kts | 155° |
| 2026-04-17 08:05 | 15.15986 | -60.66320 | 23949 ft | 424 kts | 155° |
| 2026-04-17 08:05 | 15.13405 | -60.64843 | 23950 ft | 424 kts | 155° |
| 2026-04-17 08:05 | 15.10824 | -60.63367 | 23949 ft | 424 kts | 155° |
| 2026-04-17 08:06 | 15.08242 | -60.61891 | 23944 ft | 424 kts | 155° |
| 2026-04-17 08:06 | 15.05657 | -60.60413 | 23944 ft | 424 kts | 155° |
| 2026-04-17 08:06 | 15.03079 | -60.58941 | 23944 ft | 424 kts | 155° |
| 2026-04-17 08:06 | 15.00492 | -60.57463 | 23944 ft | 424 kts | 155° |
| 2026-04-17 08:07 | 14.97909 | -60.55991 | 23947 ft | 424 kts | 155° |
| 2026-04-17 08:07 | 14.95325 | -60.54517 | 23947 ft | 424 kts | 155° |
| 2026-04-17 08:07 | 14.92773 | -60.53060 | 23938 ft | 424 kts | 155° |
| 2026-04-17 08:07 | 14.90193 | -60.51588 | 23938 ft | 423 kts | 155° |
| 2026-04-17 08:08 | 14.87617 | -60.50118 | 23937 ft | 423 kts | 155° |
| 2026-04-17 08:08 | 14.85041 | -60.48648 | 23938 ft | 423 kts | 155° |
| 2026-04-17 08:08 | 14.82467 | -60.47181 | 23939 ft | 423 kts | 155° |
| 2026-04-17 08:08 | 14.79885 | -60.45709 | 23933 ft | 423 kts | 155° |
| 2026-04-17 08:09 | 14.77306 | -60.44240 | 23934 ft | 424 kts | 155° |
| 2026-04-17 08:09 | 14.74719 | -60.42767 | 23933 ft | 424 kts | 155° |
| 2026-04-17 08:09 | 14.72129 | -60.41293 | 23933 ft | 425 kts | 155° |
| 2026-04-17 08:09 | 14.69540 | -60.39820 | 23936 ft | 425 kts | 155° |
| 2026-04-17 08:10 | 14.66954 | -60.38348 | 23936 ft | 425 kts | 155° |
| 2026-04-17 08:10 | 14.64390 | -60.36890 | 23936 ft | 424 kts | 155° |
| 2026-04-17 08:10 | 14.61808 | -60.35422 | 23936 ft | 424 kts | 155° |
| 2026-04-17 08:10 | 14.59222 | -60.33951 | 23935 ft | 425 kts | 156° |
| 2026-04-17 08:11 | 14.56624 | -60.32474 | 23936 ft | 426 kts | 156° |
| 2026-04-17 08:11 | 14.54023 | -60.30995 | 23933 ft | 427 kts | 156° |
| 2026-04-17 08:11 | 14.51419 | -60.29516 | 23933 ft | 427 kts | 156° |
| 2026-04-17 08:11 | 14.48816 | -60.28038 | 23936 ft | 427 kts | 156° |
| 2026-04-17 08:12 | 14.46193 | -60.26550 | 23762 ft | 432 kts | 156° |
| 2026-04-17 08:12 | 14.43581 | -60.25069 | 23542 ft | 433 kts | 155° |
| 2026-04-17 08:12 | 14.40943 | -60.23571 | 23292 ft | 432 kts | 155° |
| 2026-04-17 08:12 | 14.38313 | -60.22080 | 23026 ft | 430 kts | 156° |
| 2026-04-17 08:13 | 14.35618 | -60.20793 | 22761 ft | 424 kts | 161° |
| 2026-04-17 08:13 | 14.32897 | -60.19639 | 22509 ft | 422 kts | 162° |
| 2026-04-17 08:13 | 14.30179 | -60.18524 | 22267 ft | 420 kts | 162° |
| 2026-04-17 08:14 | 14.24758 | -60.16331 | 21752 ft | 417 kts | 163° |
| 2026-04-17 08:14 | 14.22061 | -60.15244 | 21509 ft | 416 kts | 162° |
| 2026-04-17 08:14 | 14.19368 | -60.14161 | 21262 ft | 414 kts | 162° |
| 2026-04-17 08:14 | 14.16691 | -60.13085 | 21019 ft | 413 kts | 162° |
| 2026-04-17 08:15 | 14.14016 | -60.12011 | 20772 ft | 410 kts | 162° |
| 2026-04-17 08:15 | 14.11412 | -60.10965 | 20422 ft | 403 kts | 162° |
| 2026-04-17 08:15 | 14.08812 | -60.09920 | 19958 ft | 400 kts | 162° |
| 2026-04-17 08:15 | 14.06228 | -60.08882 | 19437 ft | 397 kts | 162° |
| 2026-04-17 08:16 | 14.03661 | -60.07851 | 18948 ft | 394 kts | 162° |
| 2026-04-17 08:16 | 14.01107 | -60.06826 | 18449 ft | 391 kts | 161° |
| 2026-04-17 08:16 | 13.98585 | -60.05814 | 17926 ft | 388 kts | 161° |
| 2026-04-17 08:16 | 13.96084 | -60.04810 | 17402 ft | 383 kts | 162° |
| 2026-04-17 08:17 | 13.93614 | -60.03821 | 16912 ft | 378 kts | 161° |
| 2026-04-17 08:17 | 13.91180 | -60.02845 | 16431 ft | 373 kts | 161° |
| 2026-04-17 08:17 | 13.88773 | -60.01881 | 15959 ft | 369 kts | 160° |
| 2026-04-17 08:17 | 13.86388 | -60.00926 | 15494 ft | 366 kts | 161° |
| 2026-04-17 08:18 | 13.84024 | -59.99980 | 15020 ft | 362 kts | 161° |
| 2026-04-17 08:18 | 13.81684 | -59.99044 | 14554 ft | 359 kts | 161° |
| 2026-04-17 08:18 | 13.79365 | -59.98115 | 14109 ft | 355 kts | 161° |
| 2026-04-17 08:18 | 13.77076 | -59.97198 | 13656 ft | 351 kts | 161° |
| 2026-04-17 08:19 | 13.74841 | -59.96304 | 13196 ft | 348 kts | 160° |
| 2026-04-17 08:19 | 13.72598 | -59.95405 | 12762 ft | 343 kts | 160° |
| 2026-04-17 08:19 | 13.70380 | -59.94518 | 12325 ft | 340 kts | 160° |
| 2026-04-17 08:19 | 13.68189 | -59.93642 | 11912 ft | 336 kts | 159° |
| 2026-04-17 08:20 | 13.66020 | -59.92774 | 11504 ft | 333 kts | 160° |
| 2026-04-17 08:20 | 13.63876 | -59.91917 | 11101 ft | 329 kts | 159° |
| 2026-04-17 08:20 | 13.61745 | -59.91066 | 10696 ft | 327 kts | 159° |
| 2026-04-17 08:20 | 13.59639 | -59.90226 | 10412 ft | 319 kts | 158° |
| 2026-04-17 08:21 | 13.57616 | -59.89417 | 10329 ft | 304 kts | 158° |
| 2026-04-17 08:21 | 13.55687 | -59.88646 | 10219 ft | 291 kts | 158° |
| 2026-04-17 08:21 | 13.53825 | -59.87903 | 10080 ft | 283 kts | 158° |
| 2026-04-17 08:21 | 13.52015 | -59.87179 | 9902 ft | 277 kts | 158° |
| 2026-04-17 08:22 | 13.50234 | -59.86468 | 9557 ft | 278 kts | 158° |
| 2026-04-17 08:22 | 13.48428 | -59.85747 | 9247 ft | 276 kts | 158° |
| 2026-04-17 08:22 | 13.46644 | -59.85034 | 8956 ft | 274 kts | 158° |
| 2026-04-17 08:22 | 13.44871 | -59.84327 | 8652 ft | 273 kts | 157° |
| 2026-04-17 08:23 | 13.43103 | -59.83620 | 8355 ft | 272 kts | 157° |
| 2026-04-17 08:23 | 13.41348 | -59.82920 | 8087 ft | 269 kts | 156° |
| 2026-04-17 08:23 | 13.39604 | -59.82225 | 7780 ft | 268 kts | 156° |
| 2026-04-17 08:23 | 13.37863 | -59.81531 | 7483 ft | 267 kts | 156° |
| 2026-04-17 08:24 | 13.36129 | -59.80840 | 7186 ft | 267 kts | 155° |
| 2026-04-17 08:24 | 13.34400 | -59.80151 | 6910 ft | 266 kts | 156° |
| 2026-04-17 08:24 | 13.32677 | -59.79465 | 6608 ft | 265 kts | 154° |
| 2026-04-17 08:24 | 13.30960 | -59.78780 | 6305 ft | 265 kts | 154° |
| 2026-04-17 08:25 | 13.29246 | -59.78099 | 6019 ft | 263 kts | 155° |
| 2026-04-17 08:25 | 13.27568 | -59.77432 | 5735 ft | 261 kts | 154° |
| 2026-04-17 08:25 | 13.25881 | -59.76760 | 5451 ft | 258 kts | 154° |
| 2026-04-17 08:25 | 13.24212 | -59.76092 | 5157 ft | 257 kts | 154° |
| 2026-04-17 08:26 | 13.22552 | -59.75431 | 4920 ft | 252 kts | 155° |
| 2026-04-17 08:26 | 13.20942 | -59.74792 | 4764 ft | 244 kts | 155° |
| 2026-04-17 08:26 | 13.19375 | -59.74165 | 4534 ft | 240 kts | 154° |
| 2026-04-17 08:26 | 13.18351 | -59.73756 | 4362 ft | 238 kts | 154° |
| 2026-04-17 08:27 | 13.16819 | -59.73147 | 4124 ft | 234 kts | 154° |
| 2026-04-17 08:27 | 13.15323 | -59.72552 | 3902 ft | 227 kts | 154° |
| 2026-04-17 08:27 | 13.13871 | -59.71973 | 3676 ft | 220 kts | 154° |
| 2026-04-17 08:27 | 13.12453 | -59.71441 | 3415 ft | 216 kts | 156° |
| 2026-04-17 08:28 | 13.11019 | -59.71027 | 3159 ft | 211 kts | 160° |
| 2026-04-17 08:28 | 13.09619 | -59.70664 | 3015 ft | 202 kts | 161° |
| 2026-04-17 08:28 | 13.08304 | -59.70334 | 2991 ft | 189 kts | 160° |
| 2026-04-17 08:28 | 13.07064 | -59.70022 | 2992 ft | 181 kts | 158° |
| 2026-04-17 08:29 | 13.05870 | -59.69665 | 3000 ft | 177 kts | 153° |
| 2026-04-17 08:29 | 13.04819 | -59.69059 | 3008 ft | 171 kts | 136° |
| 2026-04-17 08:29 | 13.04030 | -59.68185 | 3001 ft | 165 kts | 120° |
| 2026-04-17 08:29 | 13.03555 | -59.67126 | 2999 ft | 163 kts | 102° |
| 2026-04-17 08:30 | 13.03489 | -59.65973 | 2995 ft | 163 kts | 84° |
| 2026-04-17 08:30 | 13.03670 | -59.64836 | 2896 ft | 159 kts | 77° |
| 2026-04-17 08:30 | 13.03919 | -59.63731 | 2677 ft | 159 kts | 77° |
| 2026-04-17 08:30 | 13.04179 | -59.62643 | 2437 ft | 154 kts | 77° |
| 2026-04-17 08:31 | 13.04429 | -59.61617 | 2237 ft | 142 kts | 77° |
| 2026-04-17 08:31 | 13.04656 | -59.60686 | 2053 ft | 128 kts | 78° |
| 2026-04-17 08:31 | 13.04868 | -59.59810 | 1912 ft | 126 kts | 76° |
| 2026-04-17 08:31 | 13.05080 | -59.58942 | 1736 ft | 125 kts | 77° |
| 2026-04-17 08:32 | 13.05283 | -59.58089 | 1584 ft | 125 kts | 76° |
| 2026-04-17 08:32 | 13.05502 | -59.57228 | 1396 ft | 124 kts | 77° |
| 2026-04-17 08:32 | 13.05710 | -59.56378 | 1257 ft | 122 kts | 77° |
| 2026-04-17 08:32 | 13.05908 | -59.55532 | 1105 ft | 122 kts | 77° |
| 2026-04-17 08:33 | 13.06131 | -59.54685 | 938 ft | 124 kts | 76° |
| 2026-04-17 08:33 | 13.06335 | -59.53820 | 792 ft | 125 kts | 79° |
| 2026-04-17 08:33 | 13.06545 | -59.52957 | 638 ft | 125 kts | 77° |
| 2026-04-17 08:33 | 13.06763 | -59.52095 | 457 ft | 123 kts | 78° |
| 2026-04-17 08:34 | 13.06963 | -59.51234 | 312 ft | 125 kts | 79° |
| 2026-04-17 08:34 | 13.07178 | -59.50384 | 194 ft | 118 kts | 79° |
| 2026-04-17 08:34 | 13.07336 | -59.49729 | 179 ft | 67 kts | 76° |
| 2026-04-17 08:34 | 13.07430 | -59.49346 | 178 ft | 50 kts | 75° |
| 2026-04-17 08:35 | 13.07498 | -59.49072 | 178 ft | 24 kts | 75° |
| 2026-04-17 08:35 | 13.07565 | -59.48963 | 178 ft | 18 kts | 45° |
| 2026-04-17 08:35 | 13.07636 | -59.48888 | 179 ft | 11 kts | 46° |
| 2026-04-17 08:35 | 13.07640 | -59.48884 | 179 ft | 0 kts | 46° |
| 2026-04-17 08:37 | 13.07644 | -59.48880 | 179 ft | 3 kts | 46° |
| 2026-04-17 08:37 | 13.07672 | -59.48850 | 179 ft | 7 kts | 45° |
| 2026-04-17 08:37 | 13.07714 | -59.48808 | 179 ft | 10 kts | 45° |
| 2026-04-17 08:37 | 13.07763 | -59.48750 | 179 ft | 12 kts | 55° |
| 2026-04-17 08:38 | 13.07793 | -59.48671 | 179 ft | 12 kts | 75° |
| 2026-04-17 08:38 | 13.07805 | -59.48619 | 179 ft | 8 kts | 77° |
| 2026-04-17 08:38 | 13.07817 | -59.48566 | 179 ft | 5 kts | 77° |
| 2026-04-17 08:38 | 13.07824 | -59.48540 | 179 ft | 2 kts | 75° |
| 2026-04-17 08:39 | 13.07830 | -59.48528 | 179 ft | 3 kts | 62° |
| 2026-04-17 08:39 | 13.07832 | -59.48525 | 179 ft | 2 kts | 56° |
| 2026-04-17 08:39 | 13.07860 | -59.48527 | 180 ft | 6 kts | 338° |
| 2026-04-17 08:39 | 13.07867 | -59.48530 | 180 ft | 0 kts | 338° |
| 2026-04-17 08:40 | 13.07872 | -59.48535 | 180 ft | 3 kts | 322° |
| 2026-04-17 08:40 | 13.07895 | -59.48548 | 180 ft | 5 kts | 341° |
| 2026-04-17 08:40 | 13.07918 | -59.48555 | 180 ft | 3 kts | 344° |
| 2026-04-17 08:40 | 13.07929 | -59.48558 | 180 ft | 0 kts | 344° |